Time;durP1;ratioP1;P1;durP2;ratioP2;P2;SDS_P1;SDS_P2;PMS_P1;PMS_P2;Temp;Humidity;BMP_temperature;BMP_pressure;BME280_temperature;BME280_humidity;BME280_pressure;Samples;Min_cycle;Max_cycle;Signal;HPM_P1;HPM_P2
2020/12/11 00:00:18;;;;;;;35.00;19.27;;;;;;;-0.42;87.23;99149.22;5062252;28;20476;-75
2020/12/11 00:02:44;;;;;;;29.00;18.40;;;;;;;-0.36;87.21;99145.34;5063282;28;20441;-76
2020/12/11 00:05:11;;;;;;;31.03;19.80;;;;;;;-0.22;86.35;99145.31;5061479;28;20981;-75
2020/12/11 00:07:39;;;;;;;31.17;19.07;;;;;;;-0.15;85.83;99141.34;5062694;28;20456;-75
2020/12/11 00:10:05;;;;;;;35.27;19.53;;;;;;;-0.14;85.83;99140.41;5061548;28;20476;-75
2020/12/11 00:12:31;;;;;;;32.60;18.93;;;;;;;-0.13;85.33;99138.63;5064017;28;20457;-73
2020/12/11 00:14:58;;;;;;;32.53;18.50;;;;;;;-0.16;85.46;99133.56;5063208;28;20460;-75
2020/12/11 00:17:26;;;;;;;31.33;17.13;;;;;;;-0.13;85.68;99128.94;5048667;28;20950;-76
2020/12/11 00:19:52;;;;;;;37.27;20.07;;;;;;;-0.13;85.79;99131.56;5050054;28;20500;-75
2020/12/11 00:22:19;;;;;;;37.07;20.07;;;;;;;-0.01;84.96;99125.50;5062245;28;20572;-75
2020/12/11 00:24:45;;;;;;;35.17;19.93;;;;;;;-0.03;84.67;99116.91;5062996;28;20488;-74
2020/12/11 00:27:11;;;;;;;34.73;19.77;;;;;;;-0.08;85.25;99107.63;5060957;28;20475;-76
2020/12/11 00:29:37;;;;;;;34.93;19.70;;;;;;;0.01;84.48;99103.56;5063476;28;20457;-75
2020/12/11 00:32:04;;;;;;;38.00;19.53;;;;;;;-0.03;84.58;99105.56;5062606;28;20551;-76
2020/12/11 00:34:31;;;;;;;41.20;20.37;;;;;;;-0.06;85.20;99100.50;5063182;28;20453;-76
2020/12/11 00:36:57;;;;;;;33.73;20.63;;;;;;;0.04;84.47;99098.94;5059647;28;20481;-76
2020/12/11 00:39:24;;;;;;;38.37;21.77;;;;;;;0.00;84.36;99092.22;5045346;28;20446;-76
2020/12/11 00:41:50;;;;;;;36.03;19.87;;;;;;;-0.02;84.76;99081.81;5061739;28;20503;-76
2020/12/11 00:44:16;;;;;;;35.00;19.10;;;;;;;-0.05;84.60;99087.25;5064227;28;20464;-76
2020/12/11 00:46:42;;;;;;;34.57;21.17;;;;;;;-0.04;84.41;99081.03;5061463;28;20975;-76
2020/12/11 00:49:09;;;;;;;36.50;20.27;;;;;;;-0.06;85.17;99069.81;5062803;28;20480;-76
2020/12/11 00:51:35;;;;;;;36.30;20.37;;;;;;;-0.09;85.26;99072.63;5061465;28;20500;-76
2020/12/11 00:54:01;;;;;;;32.87;19.67;;;;;;;0.02;84.56;99066.69;5067423;28;20440;-76
2020/12/11 00:56:28;;;;;;;38.57;21.40;;;;;;;0.03;84.50;99062.25;5064786;28;20547;-76
2020/12/11 00:58:54;;;;;;;39.57;22.93;;;;;;;0.03;84.53;99062.25;5067963;28;20961;-76
2020/12/11 01:01:20;;;;;;;38.67;22.63;;;;;;;0.01;84.41;99049.22;5066194;28;20500;-76
2020/12/11 01:03:46;;;;;;;39.33;22.13;;;;;;;0.01;84.71;99049.22;5066745;28;21001;-76
2020/12/11 01:06:12;;;;;;;39.40;21.80;;;;;;;0.02;84.44;99052.66;5065474;28;20500;-76
2020/12/11 01:08:38;;;;;;;35.63;19.40;;;;;;;0.02;84.40;99040.41;5067221;28;20945;-76
2020/12/11 01:11:05;;;;;;;39.73;21.83;;;;;;;-0.01;84.45;99037.97;5065548;28;20504;-76
2020/12/11 01:13:32;;;;;;;36.30;20.73;;;;;;;-0.06;84.69;99032.19;5067578;28;20508;-76
2020/12/11 01:15:58;;;;;;;39.70;22.20;;;;;;;-0.07;84.69;99035.75;5065475;28;20511;-75
2020/12/11 01:18:24;;;;;;;41.83;20.60;;;;;;;0.02;84.56;99042.16;5066432;28;20470;-76
2020/12/11 01:20:50;;;;;;;40.63;22.47;;;;;;;-0.08;84.24;99037.53;5076951;28;20490;-76
2020/12/11 01:23:16;;;;;;;39.27;21.40;;;;;;;-0.06;84.41;99034.81;5086823;28;20482;-76
2020/12/11 01:25:43;;;;;;;34.27;22.37;;;;;;;-0.10;84.54;99028.91;5082922;28;20511;-76
2020/12/11 01:28:09;;;;;;;36.70;20.47;;;;;;;-0.07;84.28;99036.59;5087206;28;20475;-77
2020/12/11 01:30:36;;;;;;;31.20;19.97;;;;;;;-0.10;84.62;99026.28;5085331;28;20546;-76
2020/12/11 01:33:02;;;;;;;36.40;21.13;;;;;;;-0.15;84.62;99025.75;5086751;28;20476;-75
2020/12/11 01:35:28;;;;;;;37.07;22.10;;;;;;;-0.12;84.22;99022.94;5085858;28;20467;-75
2020/12/11 01:37:54;;;;;;;33.23;19.50;;;;;;;-0.15;84.87;99012.63;5086650;28;20444;-76
2020/12/11 01:40:20;;;;;;;35.30;19.33;;;;;;;-0.12;84.98;98999.28;5084699;28;20475;-75
2020/12/11 01:42:46;;;;;;;35.63;20.50;;;;;;;-0.10;84.69;99000.03;5087188;28;20964;-76
2020/12/11 01:45:12;;;;;;;36.30;20.77;;;;;;;-0.13;84.35;98996.78;5085648;28;20507;-76
2020/12/11 01:47:39;;;;;;;36.93;20.80;;;;;;;-0.13;84.33;98991.50;5085574;28;20984;-75
2020/12/11 01:50:07;;;;;;;34.93;20.33;;;;;;;-0.07;84.14;98991.94;5085535;28;20454;-75
2020/12/11 01:52:33;;;;;;;34.70;20.87;;;;;;;-0.07;84.49;98984.06;5086436;28;20460;-76
2020/12/11 01:54:59;;;;;;;36.97;20.07;;;;;;;-0.06;84.19;98977.84;5086372;28;20471;-76
2020/12/11 01:57:29;;;;;;;35.83;21.57;;;;;;;0.01;83.82;98982.69;5084772;28;20558;-76
2020/12/11 01:59:56;;;;;;;37.67;22.47;;;;;;;-0.10;84.57;98970.28;5087471;28;20480;-76
2020/12/11 02:02:22;;;;;;;33.20;19.17;;;;;;;-0.18;84.88;98962.09;5085666;28;20498;-76
2020/12/11 02:04:49;;;;;;;32.47;18.90;;;;;;;-0.20;84.98;98952.50;5086199;28;20483;-76
2020/12/11 02:07:15;;;;;;;33.53;18.73;;;;;;;-0.17;84.75;98954.09;5084950;28;20572;-76
2020/12/11 02:09:42;;;;;;;34.30;19.13;;;;;;;-0.24;85.30;98955.47;5087167;28;20511;-76
2020/12/11 02:12:08;;;;;;;35.90;21.20;;;;;;;-0.14;84.83;98961.78;5085388;28;20472;-76
2020/12/11 02:14:34;;;;;;;34.23;19.90;;;;;;;-0.12;84.83;98946.75;5087365;28;20456;-76
2020/12/11 02:17:02;;;;;;;32.10;20.53;;;;;;;-0.16;84.60;98941.81;5084833;28;20467;-76
2020/12/11 02:19:30;;;;;;;33.43;19.33;;;;;;;-0.16;84.79;98947.06;5087155;28;20456;-76
2020/12/11 02:21:58;;;;;;;36.03;19.77;;;;;;;-0.12;84.65;98945.91;5084807;28;20487;-76
2020/12/11 02:24:24;;;;;;;30.50;19.87;;;;;;;-0.15;84.70;98939.06;5087039;28;20472;-76
2020/12/11 02:26:53;;;;;;;32.33;19.07;;;;;;;-0.12;84.56;98933.63;5084838;28;20499;-77
2020/12/11 02:29:20;;;;;;;29.77;19.37;;;;;;;-0.18;85.13;98927.94;5087021;28;20483;-76
2020/12/11 02:31:46;;;;;;;35.10;20.10;;;;;;;-0.14;84.96;98926.78;5085265;28;20506;-76
2020/12/11 02:34:12;;;;;;;30.00;19.03;;;;;;;-0.16;84.96;98910.28;5087356;28;20424;-76
2020/12/11 02:36:38;;;;;;;33.60;19.30;;;;;;;-0.14;84.94;98909.25;5084162;28;20508;-73
2020/12/11 02:39:05;;;;;;;31.37;20.13;;;;;;;-0.13;84.48;98904.81;5086435;28;20479;-76
2020/12/11 02:41:31;;;;;;;32.60;19.10;;;;;;;-0.09;84.36;98907.13;5085525;28;20502;-76
2020/12/11 02:43:57;;;;;;;31.90;20.67;;;;;;;-0.18;84.91;98910.38;5086660;28;20980;-76
2020/12/11 02:46:23;;;;;;;31.80;19.73;;;;;;;-0.17;85.12;98908.59;5084543;28;20514;-76
2020/12/11 02:48:49;;;;;;;31.27;20.17;;;;;;;-0.16;84.61;98905.03;5086174;28;20440;-75
2020/12/11 02:51:15;;;;;;;34.27;19.00;;;;;;;-0.17;84.78;98911.22;5084803;28;20495;-75
2020/12/11 02:53:42;;;;;;;29.20;17.07;;;;;;;-0.08;84.34;98916.69;5085836;28;20971;-76
2020/12/11 02:56:09;;;;;;;34.30;18.83;;;;;;;-0.06;84.73;98893.78;5084584;28;20499;-76
2020/12/11 02:58:35;;;;;;;31.67;17.70;;;;;;;-0.04;84.38;98901.56;5085617;28;20909;-75
2020/12/11 03:01:01;;;;;;;33.10;19.37;;;;;;;-0.03;84.35;98900.63;5084677;28;20494;-76
2020/12/11 03:03:27;;;;;;;31.83;17.97;;;;;;;-0.02;84.20;98892.63;5086195;28;20468;-77
2020/12/11 03:05:53;;;;;;;31.60;18.53;;;;;;;-0.11;84.80;98893.25;5084691;28;20906;-76
2020/12/11 03:08:19;;;;;;;28.60;16.90;;;;;;;-0.08;85.03;98887.78;5085671;28;20531;-76
2020/12/11 03:10:45;;;;;;;29.07;18.30;;;;;;;-0.14;85.12;98893.50;5085063;28;20490;-76
2020/12/11 03:13:12;;;;;;;34.83;18.87;;;;;;;-0.23;85.49;98891.47;5085721;28;20464;-76
2020/12/11 03:15:38;;;;;;;27.37;17.90;;;;;;;-0.15;84.97;98885.72;5084606;28;20527;-76
2020/12/11 03:18:04;;;;;;;33.50;20.13;;;;;;;-0.10;84.75;98879.19;5085553;28;20459;-76
2020/12/11 03:20:30;;;;;;;30.97;18.13;;;;;;;0.00;84.59;98882.03;5084307;28;20491;-76
2020/12/11 03:22:56;;;;;;;35.63;18.53;;;;;;;-0.14;84.91;98867.22;5085191;28;20475;-76
2020/12/11 03:25:23;;;;;;;34.67;19.00;;;;;;;-0.10;84.97;98867.84;5084370;28;21026;-76
2020/12/11 03:27:50;;;;;;;37.93;19.93;;;;;;;-0.18;85.16;98859.66;5085761;28;20951;-77
2020/12/11 03:30:17;;;;;;;30.50;18.37;;;;;;;-0.21;85.62;98858.06;5083773;28;20482;-76
2020/12/11 03:32:43;;;;;;;33.93;18.10;;;;;;;-0.20;85.47;98857.13;5085643;28;20478;-76
2020/12/11 03:35:09;;;;;;;32.17;19.40;;;;;;;-0.30;86.00;98854.28;5084506;28;20448;-76
2020/12/11 03:37:35;;;;;;;35.10;19.43;;;;;;;-0.35;86.33;98858.19;5084734;28;20452;-76
2020/12/11 03:40:01;;;;;;;34.47;19.17;;;;;;;-0.33;86.45;98853.66;5085579;28;21020;-76
2020/12/11 03:42:27;;;;;;;38.23;19.50;;;;;;;-0.34;86.22;98855.47;5083786;28;20494;-76
2020/12/11 03:44:54;;;;;;;33.57;19.50;;;;;;;-0.27;86.37;98848.81;5085757;28;20499;-76
2020/12/11 03:47:21;;;;;;;36.17;20.20;;;;;;;-0.32;86.58;98847.47;5083281;28;20511;-75
2020/12/11 03:49:47;;;;;;;33.80;19.93;;;;;;;-0.32;86.37;98832.56;5085255;28;20959;-76
2020/12/11 03:52:13;;;;;;;31.87;19.67;;;;;;;-0.23;85.97;98828.44;5083422;28;20522;-76
2020/12/11 03:54:39;;;;;;;40.47;21.33;;;;;;;-0.27;85.83;98834.88;5085756;28;20457;-76
2020/12/11 03:57:05;;;;;;;32.10;20.30;;;;;;;-0.25;85.66;98818.03;5083269;28;20478;-76
2020/12/11 03:59:31;;;;;;;33.10;21.20;;;;;;;-0.20;85.46;98821.19;5085303;28;20444;-77
2020/12/11 04:01:57;;;;;;;35.40;21.73;;;;;;;-0.14;85.31;98819.94;5083755;28;20551;-76
2020/12/11 04:04:24;;;;;;;38.50;22.87;;;;;;;-0.17;84.97;98812.25;5085646;28;20464;-77
2020/12/11 04:06:50;;;;;;;32.40;19.57;;;;;;;-0.08;84.71;98808.16;5082902;28;20477;-76
2020/12/11 04:09:16;;;;;;;33.60;19.90;;;;;;;-0.05;84.60;98803.50;5085054;28;20941;-77
2020/12/11 04:11:43;;;;;;;32.10;19.17;;;;;;;-0.04;84.38;98801.72;5083609;28;20508;-77
2020/12/11 04:14:09;;;;;;;39.00;20.67;;;;;;;-0.09;84.85;98798.56;5085292;28;20449;-77
2020/12/11 04:16:35;;;;;;;33.40;19.87;;;;;;;-0.04;84.66;98805.19;5082359;28;20499;-77
2020/12/11 04:19:01;;;;;;;36.53;19.47;;;;;;;-0.03;84.50;98796.34;5085290;28;20476;-76
2020/12/11 04:21:28;;;;;;;31.83;19.33;;;;;;;0.01;84.39;98801.41;5083281;28;20503;-77
2020/12/11 04:23:54;;;;;;;32.30;20.60;;;;;;;-0.02;84.54;98805.94;5084513;28;20991;-77
2020/12/11 04:26:20;;;;;;;33.60;19.73;;;;;;;0.06;84.25;98810.63;5082470;28;20543;-77
2020/12/11 04:28:46;;;;;;;34.13;19.20;;;;;;;0.04;84.32;98804.66;5084471;28;20425;-76
2020/12/11 04:31:13;;;;;;;31.57;20.00;;;;;;;0.02;84.26;98816.19;5083093;28;20549;-76
2020/12/11 04:33:39;;;;;;;30.10;20.57;;;;;;;0.03;83.87;98816.09;5085199;28;20431;-77
2020/12/11 04:36:05;;;;;;;30.20;19.00;;;;;;;0.07;83.88;98809.69;5082630;28;20479;-77
2020/12/11 04:38:32;;;;;;;29.00;18.00;;;;;;;0.18;83.77;98812.38;5084145;28;20458;-77
2020/12/11 04:41:00;;;;;;;28.57;18.87;;;;;;;0.15;83.77;98812.59;5083352;28;20507;-77
2020/12/11 04:43:26;;;;;;;30.73;19.83;;;;;;;0.17;83.54;98812.47;5084884;28;20486;-77
2020/12/11 04:45:54;;;;;;;27.73;20.30;;;;;;;0.11;83.72;98818.19;5082660;28;20496;-76
2020/12/11 04:48:20;;;;;;;28.33;18.60;;;;;;;0.24;82.96;98816.34;5064317;28;20424;-77
2020/12/11 04:50:46;;;;;;;28.20;19.03;;;;;;;0.23;83.02;98817.31;5066816;28;20510;-77
2020/12/11 04:53:15;;;;;;;29.97;19.30;;;;;;;0.23;82.87;98819.09;5083974;28;21035;-77
2020/12/11 04:55:44;;;;;;;32.37;20.50;;;;;;;0.19;83.02;98813.19;5082744;28;20542;-76
2020/12/11 04:58:11;;;;;;;32.30;19.10;;;;;;;0.24;82.91;98810.25;5084393;28;20459;-76
2020/12/11 05:00:37;;;;;;;29.20;21.17;;;;;;;0.23;82.40;98803.34;5083322;28;20491;-77
2020/12/11 05:03:03;;;;;;;29.83;19.57;;;;;;;0.25;82.56;98811.94;5084701;28;20444;-76
2020/12/11 05:05:29;;;;;;;27.73;19.60;;;;;;;0.30;82.24;98802.78;5082682;28;20507;-76
2020/12/11 05:07:55;;;;;;;28.27;18.80;;;;;;;0.35;82.54;98816.41;5084202;28;20448;-76
2020/12/11 05:10:22;;;;;;;28.83;19.20;;;;;;;0.27;82.60;98810.88;5082307;28;20479;-76
2020/12/11 05:12:49;;;;;;;31.93;19.87;;;;;;;0.30;82.54;98805.41;5082899;28;20448;-76
2020/12/11 05:15:18;;;;;;;30.70;19.73;;;;;;;0.23;82.67;98803.34;5079413;28;20488;-75
2020/12/11 05:17:44;;;;;;;28.00;18.60;;;;;;;0.37;82.13;98803.16;5082569;28;20921;-77
2020/12/11 05:20:11;;;;;;;29.27;19.70;;;;;;;0.25;82.50;98804.88;5081719;28;20507;-77
2020/12/11 05:22:39;;;;;;;27.77;20.30;;;;;;;0.27;82.31;98795.09;5082649;28;20498;-77
2020/12/11 05:25:07;;;;;;;29.87;17.80;;;;;;;0.29;82.46;98802.88;5080420;28;20468;-75
2020/12/11 05:27:36;;;;;;;26.97;18.10;;;;;;;0.29;82.40;98797.63;5078870;28;20480;-76
2020/12/11 05:30:25;;;;;;;29.83;20.03;;;;;;;0.23;82.40;98782.31;5082636;28;20451;-76
2020/12/11 05:32:54;;;;;;;27.67;19.23;;;;;;;0.22;82.72;98791.97;5078385;28;20467;-77
2020/12/11 05:35:25;;;;;;;27.27;18.47;;;;;;;0.25;82.41;98781.22;5082289;28;20447;-76
2020/12/11 05:37:54;;;;;;;27.63;19.00;;;;;;;0.23;82.42;98769.16;5083064;28;20479;-76
2020/12/11 05:40:21;;;;;;;30.13;18.70;;;;;;;0.27;82.16;98763.56;5086376;28;20542;-76
2020/12/11 05:43:12;;;;;;;27.03;19.07;;;;;;;0.18;82.56;98761.59;5087164;28;20440;-76
2020/12/11 05:45:40;;;;;;;27.07;17.33;;;;;;;0.23;82.47;98758.66;5085770;28;20495;-76
2020/12/11 05:48:06;;;;;;;31.03;20.77;;;;;;;0.16;82.82;98751.19;5086978;28;20444;-77
2020/12/11 05:50:33;;;;;;;29.07;18.23;;;;;;;0.13;83.11;98730.41;5085448;28;20472;-78
2020/12/11 05:52:59;;;;;;;29.80;20.67;;;;;;;0.22;82.71;98714.91;5087336;28;20452;-78
2020/12/11 05:55:26;;;;;;;29.90;20.57;;;;;;;0.24;82.61;98719.09;5085414;28;20510;-77
2020/12/11 05:57:54;;;;;;;26.50;17.37;;;;;;;0.24;82.56;98711.22;5087386;28;20641;-77
2020/12/11 06:00:20;;;;;;;27.77;19.13;;;;;;;0.31;82.08;98701.06;5085461;28;20447;-78
2020/12/11 06:02:48;;;;;;;27.67;20.00;;;;;;;0.29;82.21;98698.56;5086124;28;20460;-77
2020/12/11 06:05:14;;;;;;;29.27;18.87;;;;;;;0.34;82.15;98685.91;5081244;28;20476;-79
2020/12/11 06:07:43;;;;;;;28.47;18.97;;;;;;;0.37;81.80;98690.94;5085177;28;20477;-78
2020/12/11 06:10:09;;;;;;;27.57;18.53;;;;;;;0.45;81.33;98685.13;5095812;28;20467;-77
2020/12/11 06:12:35;;;;;;;26.87;18.83;;;;;;;0.47;81.14;98679.72;5101558;28;20467;-77
2020/12/11 06:15:10;;;;;;;27.07;18.43;;;;;;;0.47;81.64;98696.38;5104213;28;20966;-76
2020/12/11 06:17:38;;;;;;;27.47;17.40;;;;;;;0.47;81.53;98687.63;5099302;28;20494;-76
2020/12/11 06:20:07;;;;;;;28.13;19.27;;;;;;;0.46;81.48;98683.34;5090736;28;20460;-69
2020/12/11 06:22:34;;;;;;;24.83;17.30;;;;;;;0.54;80.94;98673.91;5085461;28;20450;-77
2020/12/11 06:25:23;;;;;;;25.40;19.50;;;;;;;0.50;80.99;98671.63;5086298;28;20504;-76
2020/12/11 06:27:49;;;;;;;22.30;16.83;;;;;;;0.49;81.13;98673.44;5084457;28;20471;-77
2020/12/11 06:30:26;;;;;;;25.63;18.37;;;;;;;0.43;81.37;98675.69;5084911;28;20452;-77
2020/12/11 06:32:52;;;;;;;31.50;19.57;;;;;;;0.54;80.91;98660.78;5085799;28;20444;-76
2020/12/11 06:35:19;;;;;;;23.07;16.97;;;;;;;0.55;80.72;98672.13;5085025;28;20436;-77
2020/12/11 06:37:46;;;;;;;27.47;18.80;;;;;;;0.46;80.91;98670.19;5084799;28;20479;-75
2020/12/11 06:40:12;;;;;;;27.37;17.77;;;;;;;0.54;80.55;98658.13;5084938;28;20463;-75
2020/12/11 06:42:45;;;;;;;22.93;16.63;;;;;;;0.51;80.85;98662.78;5086390;28;20440;-75
2020/12/11 06:45:29;;;;;;;26.87;16.87;;;;;;;0.48;80.71;98658.59;5084600;28;20498;-75
2020/12/11 06:47:57;;;;;;;26.77;17.53;;;;;;;0.47;80.74;98656.94;5085718;28;20886;-75
2020/12/11 06:50:25;;;;;;;24.17;16.67;;;;;;;0.44;80.95;98661.59;5084408;28;20448;-78
2020/12/11 06:52:52;;;;;;;23.50;16.97;;;;;;;0.49;80.61;98651.56;5085409;28;20519;-78
2020/12/11 06:55:18;;;;;;;25.87;16.77;;;;;;;0.62;79.75;98646.19;5084916;28;20444;-77
2020/12/11 06:57:47;;;;;;;26.43;17.07;;;;;;;0.53;80.32;98639.84;5085507;28;20467;-77
2020/12/11 07:00:30;;;;;;;25.40;17.60;;;;;;;0.53;80.26;98651.19;5082147;28;20481;-77
2020/12/11 07:03:33;;;;;;;23.63;16.87;;;;;;;0.59;80.00;98654.31;5086349;28;20494;-77
2020/12/11 07:06:05;;;;;;;23.83;18.00;;;;;;;0.57;79.66;98662.31;5084792;28;20518;-76
2020/12/11 07:08:32;;;;;;;25.80;16.80;;;;;;;0.67;79.06;98646.69;5085820;28;20544;-77
2020/12/11 07:11:19;;;;;;;24.00;16.00;;;;;;;0.62;79.34;98643.56;5084435;28;20535;-76
2020/12/11 07:13:49;;;;;;;22.30;16.90;;;;;;;0.61;79.36;98642.75;5073637;28;20444;-75
2020/12/11 07:16:15;;;;;;;25.27;17.80;;;;;;;0.60;79.38;98640.22;5073902;28;20499;-76
2020/12/11 07:18:42;;;;;;;24.40;16.47;;;;;;;0.68;78.90;98651.81;5080400;28;20994;-67
2020/12/11 07:21:10;;;;;;;20.67;15.53;;;;;;;0.70;78.46;98633.31;5080480;28;20471;-66
2020/12/11 07:23:36;;;;;;;19.93;16.37;;;;;;;0.70;78.24;98631.50;5084239;28;20531;-68
2020/12/11 07:26:04;;;;;;;19.30;15.30;;;;;;;0.73;78.24;98636.53;5082455;28;20472;-66
2020/12/11 07:28:30;;;;;;;21.53;14.20;;;;;;;0.72;78.77;98626.97;5085200;28;20475;-74
2020/12/11 07:30:56;;;;;;;21.33;15.40;;;;;;;0.70;78.54;98626.25;5083282;28;20926;-75
2020/12/11 07:33:29;;;;;;;18.07;14.07;;;;;;;0.69;78.67;98627.19;5084924;28;20428;-75
2020/12/11 07:36:00;;;;;;;18.87;14.23;;;;;;;0.74;78.22;98611.06;5072605;28;20467;-74
2020/12/11 07:38:27;;;;;;;21.87;15.37;;;;;;;0.73;78.31;98607.59;5084858;28;20475;-75
2020/12/11 07:40:54;;;;;;;19.73;14.57;;;;;;;0.80;77.90;98612.38;5083386;28;20487;-65
2020/12/11 07:43:22;;;;;;;19.80;14.13;;;;;;;0.80;77.67;98607.97;5083859;28;20432;-66
2020/12/11 07:45:49;;;;;;;17.83;13.43;;;;;;;0.79;77.84;98593.13;5083075;28;20842;-67
2020/12/11 07:48:15;;;;;;;16.97;13.63;;;;;;;0.77;78.07;98595.03;5085038;28;20430;-73
2020/12/11 07:50:42;;;;;;;19.23;14.57;;;;;;;0.78;78.21;98601.13;5077479;28;20590;-73
2020/12/11 07:53:09;;;;;;;22.40;16.60;;;;;;;0.77;78.06;98608.19;5084427;28;20451;-76
2020/12/11 07:55:36;;;;;;;20.57;15.20;;;;;;;0.78;78.17;98609.84;5083228;28;20479;-75
2020/12/11 07:58:03;;;;;;;19.57;14.17;;;;;;;0.75;78.26;98597.78;5084701;28;20439;-70
2020/12/11 08:00:30;;;;;;;18.10;13.63;;;;;;;0.79;78.17;98593.13;5083117;28;20475;-69
2020/12/11 08:02:57;;;;;;;18.10;13.00;;;;;;;0.81;78.26;98585.13;5083242;28;20451;-69
2020/12/11 08:05:23;;;;;;;16.67;13.30;;;;;;;0.86;77.79;98593.50;5082636;28;20660;-69
2020/12/11 08:07:51;;;;;;;22.57;15.83;;;;;;;0.88;77.28;98587.13;5083797;28;20448;-69
2020/12/11 08:10:20;;;;;;;21.20;14.57;;;;;;;0.96;77.29;98583.09;5083006;28;20478;-69
2020/12/11 08:12:47;;;;;;;23.57;16.67;;;;;;;0.92;77.85;98585.97;5083488;28;20508;-70
2020/12/11 08:15:31;;;;;;;20.20;15.13;;;;;;;0.94;77.39;98583.22;5081217;28;20450;-70
2020/12/11 08:18:20;;;;;;;20.97;16.27;;;;;;;0.94;77.55;98577.94;5083909;28;20432;-70
2020/12/11 08:20:57;;;;;;;23.03;16.63;;;;;;;0.98;77.93;98576.75;5081547;28;20476;-70
2020/12/11 08:23:26;;;;;;;19.50;13.97;;;;;;;1.01;77.42;98571.25;5073412;28;20444;-70
2020/12/11 08:26:20;;;;;;;17.70;13.27;;;;;;;1.16;76.62;98563.91;5075261;28;20475;-69
2020/12/11 08:28:48;;;;;;;22.03;15.93;;;;;;;1.06;77.15;98566.44;5008968;28;20451;-69
2020/12/11 08:31:16;;;;;;;20.00;15.63;;;;;;;1.13;77.13;98565.00;5010548;28;20482;-71
2020/12/11 08:33:43;;;;;;;22.13;14.23;;;;;;;1.25;76.51;98554.44;5003397;28;20428;-69
2020/12/11 08:36:22;;;;;;;18.70;13.63;;;;;;;1.22;76.68;98559.97;5001691;28;20494;-69
2020/12/11 08:39:12;;;;;;;20.77;14.60;;;;;;;1.27;76.35;98558.63;5008711;28;20443;-72
2020/12/11 08:41:42;;;;;;;18.40;13.30;;;;;;;1.27;76.46;98555.16;5009202;28;20924;-74
2020/12/11 08:44:22;;;;;;;17.93;13.50;;;;;;;1.32;76.12;98563.53;5008703;28;20448;-74
2020/12/11 08:47:00;;;;;;;19.77;14.03;;;;;;;1.31;76.14;98559.22;5007844;28;21022;-74
2020/12/11 08:49:41;;;;;;;19.27;13.20;;;;;;;1.46;76.32;98554.53;5011545;28;20982;-71
2020/12/11 08:52:08;;;;;;;22.00;15.00;;;;;;;1.45;76.34;98551.03;5013048;28;20461;-70
2020/12/11 08:54:34;;;;;;;25.37;14.87;;;;;;;1.41;76.37;98546.16;5015342;28;20435;-69
2020/12/11 08:57:00;;;;;;;19.97;13.77;;;;;;;1.47;75.89;98546.47;5011150;28;21023;-73
2020/12/11 08:59:27;;;;;;;21.23;14.80;;;;;;;1.43;76.07;98560.03;5011638;28;20464;-74
2020/12/11 09:01:53;;;;;;;20.57;14.70;;;;;;;1.48;75.73;98552.59;5013175;28;20538;-72
2020/12/11 09:04:19;;;;;;;20.17;15.10;;;;;;;1.46;76.52;98565.88;5042271;28;20846;-74
2020/12/11 09:06:46;;;;;;;21.43;15.57;;;;;;;1.43;76.40;98566.13;5064921;28;20472;-73
2020/12/11 09:09:12;;;;;;;19.53;15.70;;;;;;;1.52;76.05;98563.72;5073344;28;20440;-75
2020/12/11 09:11:38;;;;;;;19.80;14.73;;;;;;;1.63;75.56;98546.06;5071011;28;20491;-74
2020/12/11 09:14:04;;;;;;;17.43;13.77;;;;;;;1.66;76.02;98556.34;5072077;28;20452;-75
2020/12/11 09:16:31;;;;;;;18.87;14.53;;;;;;;1.63;75.87;98559.25;5077160;28;20923;-72
2020/12/11 09:18:58;;;;;;;18.23;14.40;;;;;;;1.60;76.11;98550.75;5078490;28;20459;-75
2020/12/11 09:21:24;;;;;;;22.17;15.63;;;;;;;1.59;75.80;98559.63;5081616;28;20908;-78
2020/12/11 09:23:50;;;;;;;18.57;14.40;;;;;;;1.67;75.46;98549.28;5086401;28;20444;-65
2020/12/11 09:26:16;;;;;;;21.37;15.10;;;;;;;1.72;75.37;98546.25;5085477;28;20484;-66
2020/12/11 09:28:46;;;;;;;24.70;18.37;;;;;;;1.64;75.60;98539.81;5086965;28;20493;-65
2020/12/11 09:31:13;;;;;;;23.57;16.97;;;;;;;1.68;75.35;98543.91;5085254;28;20900;-65
2020/12/11 09:33:43;;;;;;;18.90;14.50;;;;;;;1.79;76.03;98540.38;5087042;28;20432;-65
2020/12/11 09:36:09;;;;;;;19.87;14.60;;;;;;;1.80;75.16;98530.66;5085974;28;20563;-65
2020/12/11 09:38:36;;;;;;;22.90;16.33;;;;;;;1.75;75.21;98533.66;5086728;28;20448;-65
2020/12/11 09:41:04;;;;;;;23.93;17.00;;;;;;;1.81;74.70;98522.63;5085195;28;20464;-65
2020/12/11 09:44:04;;;;;;;26.17;16.10;;;;;;;1.93;74.57;98509.38;5086705;28;20444;-64
2020/12/11 09:46:37;;;;;;;21.40;14.20;;;;;;;2.01;74.99;98502.50;5085550;28;20531;-64
2020/12/11 09:49:08;;;;;;;21.30;14.30;;;;;;;2.04;74.62;98486.44;5086745;28;20452;-70
2020/12/11 09:51:57;;;;;;;20.10;15.37;;;;;;;1.94;74.50;98490.81;5082145;28;20526;-70
2020/12/11 09:54:25;;;;;;;22.40;15.40;;;;;;;2.03;74.75;98497.09;5086179;28;20462;-72
2020/12/11 09:56:52;;;;;;;20.57;15.80;;;;;;;2.15;73.78;98487.31;5085088;28;20479;-66
2020/12/11 09:59:20;;;;;;;24.40;15.97;;;;;;;2.17;73.87;98478.34;5086718;28;20436;-67
2020/12/11 10:04:47;;;;;;;18.33;15.17;;;;;;;2.40;72.79;98478.16;5023943;28;20446;-67
2020/12/11 10:07:13;;;;;;;23.83;14.60;;;;;;;2.40;72.60;98476.34;5027215;28;20481;-66
2020/12/11 10:09:40;;;;;;;21.57;14.30;;;;;;;2.39;72.60;98471.22;5025762;28;20472;-67
2020/12/11 10:12:06;;;;;;;21.93;15.73;;;;;;;2.56;71.36;98459.19;5023187;28;20477;-71
2020/12/11 10:14:35;;;;;;;21.37;15.20;;;;;;;2.63;72.03;98462.97;5028976;28;20472;-72
2020/12/11 10:17:01;;;;;;;20.27;15.20;;;;;;;3.20;70.05;98448.19;5029420;28;20536;-72
2020/12/11 10:19:27;;;;;;;19.20;14.83;;;;;;;2.89;70.31;98455.38;5026520;28;20907;-73
2020/12/11 10:21:55;;;;;;;19.10;16.67;;;;;;;2.59;71.02;98449.22;5022567;28;20478;-74
2020/12/11 10:24:22;;;;;;;20.00;15.77;;;;;;;2.89;71.35;98449.28;5024001;28;20453;-75
2020/12/11 10:26:49;;;;;;;19.90;14.87;;;;;;;3.19;70.41;98450.97;5020329;28;20505;-74
2020/12/11 10:29:16;;;;;;;21.70;15.90;;;;;;;3.43;68.92;98452.38;5024324;28;20443;-76
2020/12/11 10:31:42;;;;;;;19.83;15.37;;;;;;;3.20;69.56;98455.28;5022480;28;20482;-70
2020/12/11 10:34:09;;;;;;;23.03;14.10;;;;;;;3.91;67.94;98452.31;5024181;28;20439;-72
2020/12/11 10:36:36;;;;;;;19.83;14.30;;;;;;;3.76;67.64;98446.63;5017600;28;20522;-70
2020/12/11 10:39:04;;;;;;;17.53;14.00;;;;;;;3.88;67.00;98441.19;5056410;28;20524;-74
2020/12/11 10:41:30;;;;;;;19.83;14.77;;;;;;;4.31;66.68;98442.47;5083879;28;20539;-73
2020/12/11 10:43:57;;;;;;;20.63;13.80;;;;;;;4.40;66.09;98438.13;5084455;28;20845;-71
2020/12/11 10:46:23;;;;;;;21.87;16.00;;;;;;;4.26;65.91;98442.88;5082943;28;20498;-68
2020/12/11 10:48:49;;;;;;;17.47;13.30;;;;;;;3.96;67.15;98444.78;5084058;28;20520;-69
2020/12/11 10:51:16;;;;;;;19.17;13.23;;;;;;;4.15;66.89;98430.69;5082190;28;20484;-70
2020/12/11 10:53:43;;;;;;;21.30;15.43;;;;;;;3.53;68.89;98432.91;5083903;28;20447;-74
2020/12/11 10:56:12;;;;;;;20.53;14.30;;;;;;;3.52;69.32;98425.13;5083247;28;20476;-71
2020/12/11 10:58:39;;;;;;;19.33;14.40;;;;;;;3.68;69.15;98425.38;5082532;28;20498;-68
2020/12/11 11:01:06;;;;;;;16.80;12.57;;;;;;;4.16;68.22;98415.63;5083678;28;20494;-71
2020/12/11 11:03:32;;;;;;;18.93;13.17;;;;;;;3.97;66.85;98413.91;5087907;28;20450;-73
2020/12/11 11:06:02;;;;;;;17.63;13.40;;;;;;;3.61;68.97;98411.06;5083011;28;20514;-74
2020/12/11 11:08:37;;;;;;;19.90;11.40;;;;;;;3.97;67.27;98405.97;5088967;28;20584;-73
2020/12/11 11:11:03;;;;;;;17.67;15.20;;;;;;;3.70;68.72;98402.28;5083220;28;20497;-72
2020/12/11 11:13:38;;;;;;;16.77;12.47;;;;;;;3.74;69.07;98393.09;5087526;28;20497;-72
2020/12/11 11:16:05;;;;;;;17.07;12.77;;;;;;;3.56;69.37;98395.63;5084573;28;20471;-74
2020/12/11 11:18:44;;;;;;;19.43;14.37;;;;;;;3.43;69.62;98392.44;5083963;28;20494;-72
2020/12/11 11:21:41;;;;;;;20.10;12.90;;;;;;;3.54;69.45;98383.53;5081633;28;20531;-73
2020/12/11 11:26:56;;;;;;;17.70;11.83;;;;;;;3.61;70.13;98375.88;5080006;28;20471;-70
2020/12/11 11:29:23;;;;;;;19.20;12.90;;;;;;;3.39;70.38;98383.16;5082154;28;20436;-69
2020/12/11 11:31:50;;;;;;;17.10;12.60;;;;;;;3.31;70.99;98381.19;5082449;28;20531;-72